sensor_id;sensor_type;location;lat;lon;timestamp;P1;durP1;ratioP1;P2;durP2;ratioP2
56943;SDS011;42848;42.524;12.052;2023-07-13T00:02:24;5.18;;;2.60;;
56943;SDS011;42848;42.524;12.052;2023-07-13T00:04:52;4.95;;;3.13;;
56943;SDS011;42848;42.524;12.052;2023-07-13T00:07:17;6.03;;;3.10;;
56943;SDS011;42848;42.524;12.052;2023-07-13T00:09:45;5.45;;;2.60;;
56943;SDS011;42848;42.524;12.052;2023-07-13T00:12:25;5.07;;;2.90;;
56943;SDS011;42848;42.524;12.052;2023-07-13T00:14:58;7.65;;;2.90;;
56943;SDS011;42848;42.524;12.052;2023-07-13T00:17:25;4.30;;;2.83;;
56943;SDS011;42848;42.524;12.052;2023-07-13T00:19:52;4.80;;;2.80;;
56943;SDS011;42848;42.524;12.052;2023-07-13T00:22:20;6.25;;;2.78;;
56943;SDS011;42848;42.524;12.052;2023-07-13T00:24:47;6.28;;;2.60;;
56943;SDS011;42848;42.524;12.052;2023-07-13T00:27:13;7.47;;;3.10;;
56943;SDS011;42848;42.524;12.052;2023-07-13T00:29:39;5.60;;;2.78;;
56943;SDS011;42848;42.524;12.052;2023-07-13T00:32:05;5.35;;;2.88;;
56943;SDS011;42848;42.524;12.052;2023-07-13T00:34:34;4.45;;;3.00;;
56943;SDS011;42848;42.524;12.052;2023-07-13T00:37:00;6.93;;;2.90;;
56943;SDS011;42848;42.524;12.052;2023-07-13T00:39:26;7.10;;;2.75;;
56943;SDS011;42848;42.524;12.052;2023-07-13T00:41:52;5.43;;;2.90;;
56943;SDS011;42848;42.524;12.052;2023-07-13T00:44:19;5.07;;;2.85;;
56943;SDS011;42848;42.524;12.052;2023-07-13T00:46:48;6.03;;;2.85;;
56943;SDS011;42848;42.524;12.052;2023-07-13T00:49:15;5.43;;;2.90;;
56943;SDS011;42848;42.524;12.052;2023-07-13T00:51:54;4.22;;;2.67;;
56943;SDS011;42848;42.524;12.052;2023-07-13T00:54:33;4.68;;;2.80;;
56943;SDS011;42848;42.524;12.052;2023-07-13T00:57:03;3.47;;;2.60;;
56943;SDS011;42848;42.524;12.052;2023-07-13T00:59:31;7.72;;;3.03;;
56943;SDS011;42848;42.524;12.052;2023-07-13T01:02:00;4.20;;;2.88;;
56943;SDS011;42848;42.524;12.052;2023-07-13T01:04:26;5.20;;;3.10;;
56943;SDS011;42848;42.524;12.052;2023-07-13T01:06:52;5.43;;;2.88;;
56943;SDS011;42848;42.524;12.052;2023-07-13T01:09:19;4.40;;;2.97;;
56943;SDS011;42848;42.524;12.052;2023-07-13T01:11:46;7.50;;;3.00;;
56943;SDS011;42848;42.524;12.052;2023-07-13T01:14:13;6.38;;;3.13;;
56943;SDS011;42848;42.524;12.052;2023-07-13T01:16:40;6.13;;;3.00;;
56943;SDS011;42848;42.524;12.052;2023-07-13T01:19:18;3.40;;;2.67;;
56943;SDS011;42848;42.524;12.052;2023-07-13T01:21:55;4.32;;;2.70;;
56943;SDS011;42848;42.524;12.052;2023-07-13T01:24:20;6.28;;;2.90;;
56943;SDS011;42848;42.524;12.052;2023-07-13T01:26:46;6.65;;;3.60;;
56943;SDS011;42848;42.524;12.052;2023-07-13T01:29:12;4.75;;;2.97;;
56943;SDS011;42848;42.524;12.052;2023-07-13T01:31:37;5.05;;;2.92;;
56943;SDS011;42848;42.524;12.052;2023-07-13T01:34:03;4.53;;;3.08;;
56943;SDS011;42848;42.524;12.052;2023-07-13T01:36:28;5.18;;;2.75;;
56943;SDS011;42848;42.524;12.052;2023-07-13T01:38:54;6.95;;;3.17;;
56943;SDS011;42848;42.524;12.052;2023-07-13T01:41:20;4.95;;;3.00;;
56943;SDS011;42848;42.524;12.052;2023-07-13T01:43:46;5.30;;;3.05;;
56943;SDS011;42848;42.524;12.052;2023-07-13T01:46:11;5.07;;;3.30;;
56943;SDS011;42848;42.524;12.052;2023-07-13T01:48:37;5.93;;;3.20;;
56943;SDS011;42848;42.524;12.052;2023-07-13T01:51:02;3.85;;;2.90;;
56943;SDS011;42848;42.524;12.052;2023-07-13T01:53:28;8.10;;;3.20;;
56943;SDS011;42848;42.524;12.052;2023-07-13T01:55:54;8.65;;;3.08;;
56943;SDS011;42848;42.524;12.052;2023-07-13T01:58:19;6.95;;;3.20;;
56943;SDS011;42848;42.524;12.052;2023-07-13T02:00:47;6.03;;;3.15;;
56943;SDS011;42848;42.524;12.052;2023-07-13T02:03:15;6.75;;;3.42;;
56943;SDS011;42848;42.524;12.052;2023-07-13T02:05:43;3.92;;;3.10;;
56943;SDS011;42848;42.524;12.052;2023-07-13T02:08:10;5.32;;;3.22;;
56943;SDS011;42848;42.524;12.052;2023-07-13T02:10:36;4.72;;;3.20;;
56943;SDS011;42848;42.524;12.052;2023-07-13T02:13:04;6.47;;;3.25;;
56943;SDS011;42848;42.524;12.052;2023-07-13T02:15:31;5.70;;;3.20;;
56943;SDS011;42848;42.524;12.052;2023-07-13T02:17:57;5.10;;;3.40;;
56943;SDS011;42848;42.524;12.052;2023-07-13T02:20:24;6.20;;;3.50;;
56943;SDS011;42848;42.524;12.052;2023-07-13T02:22:51;8.02;;;3.50;;
56943;SDS011;42848;42.524;12.052;2023-07-13T02:25:17;10.45;;;3.40;;
56943;SDS011;42848;42.524;12.052;2023-07-13T02:27:44;6.63;;;3.63;;
56943;SDS011;42848;42.524;12.052;2023-07-13T02:30:10;5.85;;;3.30;;
56943;SDS011;42848;42.524;12.052;2023-07-13T02:32:36;6.25;;;3.70;;
56943;SDS011;42848;42.524;12.052;2023-07-13T02:35:02;6.43;;;3.55;;
56943;SDS011;42848;42.524;12.052;2023-07-13T02:37:28;5.55;;;3.47;;
56943;SDS011;42848;42.524;12.052;2023-07-13T02:39:55;6.90;;;3.75;;
56943;SDS011;42848;42.524;12.052;2023-07-13T02:42:20;5.43;;;3.60;;
56943;SDS011;42848;42.524;12.052;2023-07-13T02:44:46;6.45;;;3.70;;
56943;SDS011;42848;42.524;12.052;2023-07-13T02:47:12;5.78;;;3.67;;
56943;SDS011;42848;42.524;12.052;2023-07-13T02:49:38;4.40;;;3.33;;
56943;SDS011;42848;42.524;12.052;2023-07-13T02:52:04;9.52;;;4.00;;
56943;SDS011;42848;42.524;12.052;2023-07-13T02:54:30;5.38;;;3.65;;
56943;SDS011;42848;42.524;12.052;2023-07-13T02:56:55;6.93;;;3.78;;
56943;SDS011;42848;42.524;12.052;2023-07-13T02:59:21;6.15;;;4.18;;
56943;SDS011;42848;42.524;12.052;2023-07-13T03:01:47;5.95;;;4.05;;
56943;SDS011;42848;42.524;12.052;2023-07-13T03:04:12;7.40;;;3.97;;
56943;SDS011;42848;42.524;12.052;2023-07-13T03:06:38;6.82;;;4.00;;
56943;SDS011;42848;42.524;12.052;2023-07-13T03:09:03;6.63;;;4.15;;
56943;SDS011;42848;42.524;12.052;2023-07-13T03:11:29;5.97;;;4.05;;
56943;SDS011;42848;42.524;12.052;2023-07-13T03:13:55;7.15;;;3.92;;
56943;SDS011;42848;42.524;12.052;2023-07-13T03:16:20;6.10;;;4.10;;
56943;SDS011;42848;42.524;12.052;2023-07-13T03:18:46;8.65;;;4.20;;
56943;SDS011;42848;42.524;12.052;2023-07-13T03:21:13;6.68;;;4.15;;
56943;SDS011;42848;42.524;12.052;2023-07-13T03:23:39;6.47;;;4.10;;
56943;SDS011;42848;42.524;12.052;2023-07-13T03:26:12;5.18;;;3.95;;
56943;SDS011;42848;42.524;12.052;2023-07-13T03:28:40;7.50;;;4.10;;
56943;SDS011;42848;42.524;12.052;2023-07-13T03:31:08;7.53;;;3.75;;
56943;SDS011;42848;42.524;12.052;2023-07-13T03:33:36;5.70;;;4.10;;
56943;SDS011;42848;42.524;12.052;2023-07-13T03:36:03;6.47;;;3.95;;
56943;SDS011;42848;42.524;12.052;2023-07-13T03:38:33;7.47;;;3.78;;
56943;SDS011;42848;42.524;12.052;2023-07-13T03:40:59;7.65;;;4.03;;
56943;SDS011;42848;42.524;12.052;2023-07-13T03:43:25;6.05;;;4.00;;
56943;SDS011;42848;42.524;12.052;2023-07-13T03:45:51;5.85;;;3.90;;
56943;SDS011;42848;42.524;12.052;2023-07-13T03:48:17;9.85;;;3.97;;
56943;SDS011;42848;42.524;12.052;2023-07-13T03:50:42;6.70;;;4.10;;
56943;SDS011;42848;42.524;12.052;2023-07-13T03:53:08;10.00;;;6.65;;
56943;SDS011;42848;42.524;12.052;2023-07-13T03:55:34;7.28;;;4.15;;
56943;SDS011;42848;42.524;12.052;2023-07-13T03:58:22;6.25;;;4.18;;
56943;SDS011;42848;42.524;12.052;2023-07-13T04:00:54;6.85;;;4.10;;
56943;SDS011;42848;42.524;12.052;2023-07-13T04:03:20;8.02;;;4.20;;
56943;SDS011;42848;42.524;12.052;2023-07-13T04:05:46;6.70;;;4.03;;
56943;SDS011;42848;42.524;12.052;2023-07-13T04:08:12;7.50;;;4.20;;
56943;SDS011;42848;42.524;12.052;2023-07-13T04:10:38;9.68;;;4.68;;
56943;SDS011;42848;42.524;12.052;2023-07-13T04:13:04;6.85;;;4.20;;
56943;SDS011;42848;42.524;12.052;2023-07-13T04:15:31;7.80;;;4.18;;
56943;SDS011;42848;42.524;12.052;2023-07-13T04:17:57;7.05;;;4.10;;
56943;SDS011;42848;42.524;12.052;2023-07-13T04:20:26;6.68;;;4.10;;
56943;SDS011;42848;42.524;12.052;2023-07-13T04:22:52;6.68;;;4.20;;
56943;SDS011;42848;42.524;12.052;2023-07-13T04:25:18;7.15;;;4.10;;
56943;SDS011;42848;42.524;12.052;2023-07-13T04:27:45;6.68;;;4.20;;
56943;SDS011;42848;42.524;12.052;2023-07-13T04:30:11;6.20;;;4.03;;
56943;SDS011;42848;42.524;12.052;2023-07-13T04:32:37;6.20;;;4.00;;
56943;SDS011;42848;42.524;12.052;2023-07-13T04:35:02;8.48;;;4.30;;
56943;SDS011;42848;42.524;12.052;2023-07-13T04:37:29;8.70;;;4.20;;
56943;SDS011;42848;42.524;12.052;2023-07-13T04:39:55;7.07;;;4.28;;
56943;SDS011;42848;42.524;12.052;2023-07-13T04:42:20;14.52;;;4.80;;
56943;SDS011;42848;42.524;12.052;2023-07-13T04:44:48;7.63;;;3.97;;
56943;SDS011;42848;42.524;12.052;2023-07-13T04:47:14;5.82;;;3.78;;
56943;SDS011;42848;42.524;12.052;2023-07-13T04:49:40;6.72;;;4.00;;
56943;SDS011;42848;42.524;12.052;2023-07-13T04:52:06;9.63;;;3.97;;
56943;SDS011;42848;42.524;12.052;2023-07-13T04:54:33;8.00;;;3.88;;
56943;SDS011;42848;42.524;12.052;2023-07-13T04:56:59;8.40;;;4.20;;
56943;SDS011;42848;42.524;12.052;2023-07-13T04:59:25;7.00;;;3.65;;
56943;SDS011;42848;42.524;12.052;2023-07-13T05:01:52;5.72;;;3.55;;
56943;SDS011;42848;42.524;12.052;2023-07-13T05:04:18;8.70;;;3.80;;
56943;SDS011;42848;42.524;12.052;2023-07-13T05:06:44;4.60;;;3.67;;
56943;SDS011;42848;42.524;12.052;2023-07-13T05:09:09;10.60;;;3.70;;
56943;SDS011;42848;42.524;12.052;2023-07-13T05:11:35;6.63;;;4.80;;
56943;SDS011;42848;42.524;12.052;2023-07-13T05:14:01;5.63;;;3.53;;
56943;SDS011;42848;42.524;12.052;2023-07-13T05:16:26;6.60;;;3.63;;
56943;SDS011;42848;42.524;12.052;2023-07-13T05:18:53;11.43;;;8.20;;
56943;SDS011;42848;42.524;12.052;2023-07-13T05:21:19;15.27;;;9.43;;
56943;SDS011;42848;42.524;12.052;2023-07-13T05:23:45;6.95;;;3.80;;
56943;SDS011;42848;42.524;12.052;2023-07-13T05:26:11;8.02;;;4.20;;
56943;SDS011;42848;42.524;12.052;2023-07-13T05:28:37;7.65;;;4.07;;
56943;SDS011;42848;42.524;12.052;2023-07-13T05:31:03;6.20;;;4.35;;
56943;SDS011;42848;42.524;12.052;2023-07-13T05:33:30;7.30;;;3.80;;
56943;SDS011;42848;42.524;12.052;2023-07-13T05:35:55;6.72;;;4.18;;
56943;SDS011;42848;42.524;12.052;2023-07-13T05:38:21;6.38;;;4.10;;
56943;SDS011;42848;42.524;12.052;2023-07-13T05:40:47;8.60;;;4.03;;
56943;SDS011;42848;42.524;12.052;2023-07-13T05:43:12;8.10;;;4.10;;
56943;SDS011;42848;42.524;12.052;2023-07-13T05:45:39;8.02;;;3.83;;
56943;SDS011;42848;42.524;12.052;2023-07-13T05:48:05;6.95;;;4.00;;
56943;SDS011;42848;42.524;12.052;2023-07-13T05:50:31;9.00;;;4.20;;
56943;SDS011;42848;42.524;12.052;2023-07-13T05:52:57;6.95;;;3.75;;
56943;SDS011;42848;42.524;12.052;2023-07-13T05:55:22;10.32;;;4.18;;
56943;SDS011;42848;42.524;12.052;2023-07-13T05:57:48;9.23;;;3.90;;
56943;SDS011;42848;42.524;12.052;2023-07-13T06:00:13;11.13;;;3.88;;
56943;SDS011;42848;42.524;12.052;2023-07-13T06:02:40;7.78;;;3.58;;
56943;SDS011;42848;42.524;12.052;2023-07-13T06:05:06;7.50;;;4.72;;
56943;SDS011;42848;42.524;12.052;2023-07-13T06:07:32;7.38;;;3.80;;
56943;SDS011;42848;42.524;12.052;2023-07-13T06:09:57;13.10;;;3.78;;
56943;SDS011;42848;42.524;12.052;2023-07-13T06:12:24;8.77;;;4.43;;
56943;SDS011;42848;42.524;12.052;2023-07-13T06:14:50;8.15;;;4.15;;
56943;SDS011;42848;42.524;12.052;2023-07-13T06:17:16;7.18;;;4.22;;
56943;SDS011;42848;42.524;12.052;2023-07-13T06:19:42;7.22;;;3.70;;
56943;SDS011;42848;42.524;12.052;2023-07-13T06:22:07;8.75;;;5.68;;
56943;SDS011;42848;42.524;12.052;2023-07-13T06:24:33;7.95;;;4.13;;
56943;SDS011;42848;42.524;12.052;2023-07-13T06:26:59;8.30;;;3.88;;
56943;SDS011;42848;42.524;12.052;2023-07-13T06:29:24;6.40;;;3.70;;
56943;SDS011;42848;42.524;12.052;2023-07-13T06:31:50;7.05;;;3.67;;
56943;SDS011;42848;42.524;12.052;2023-07-13T06:34:15;8.07;;;3.58;;
56943;SDS011;42848;42.524;12.052;2023-07-13T06:36:41;7.13;;;3.40;;
56943;SDS011;42848;42.524;12.052;2023-07-13T06:39:06;7.93;;;3.92;;
56943;SDS011;42848;42.524;12.052;2023-07-13T06:41:33;9.15;;;4.57;;
56943;SDS011;42848;42.524;12.052;2023-07-13T06:43:59;8.57;;;3.95;;
56943;SDS011;42848;42.524;12.052;2023-07-13T06:46:25;9.55;;;4.07;;
56943;SDS011;42848;42.524;12.052;2023-07-13T06:48:51;9.30;;;3.78;;
56943;SDS011;42848;42.524;12.052;2023-07-13T06:51:17;7.93;;;3.67;;
56943;SDS011;42848;42.524;12.052;2023-07-13T06:53:42;10.98;;;4.60;;
56943;SDS011;42848;42.524;12.052;2023-07-13T06:56:09;8.00;;;4.20;;
56943;SDS011;42848;42.524;12.052;2023-07-13T06:58:36;8.43;;;3.67;;
56943;SDS011;42848;42.524;12.052;2023-07-13T07:01:02;8.68;;;3.80;;
56943;SDS011;42848;42.524;12.052;2023-07-13T07:03:29;9.23;;;3.88;;
56943;SDS011;42848;42.524;12.052;2023-07-13T07:06:00;14.60;;;5.88;;
56943;SDS011;42848;42.524;12.052;2023-07-13T07:08:26;9.48;;;3.80;;
56943;SDS011;42848;42.524;12.052;2023-07-13T07:10:52;8.00;;;3.80;;
56943;SDS011;42848;42.524;12.052;2023-07-13T07:13:19;8.25;;;3.30;;
56943;SDS011;42848;42.524;12.052;2023-07-13T07:15:45;11.60;;;3.65;;
56943;SDS011;42848;42.524;12.052;2023-07-13T07:18:11;7.82;;;3.65;;
56943;SDS011;42848;42.524;12.052;2023-07-13T07:20:37;6.32;;;3.65;;
56943;SDS011;42848;42.524;12.052;2023-07-13T07:23:02;10.98;;;3.80;;
56943;SDS011;42848;42.524;12.052;2023-07-13T07:25:28;8.52;;;3.85;;
56943;SDS011;42848;42.524;12.052;2023-07-13T07:27:57;8.32;;;3.70;;
56943;SDS011;42848;42.524;12.052;2023-07-13T07:30:24;6.25;;;3.72;;
56943;SDS011;42848;42.524;12.052;2023-07-13T07:32:49;8.40;;;3.70;;
56943;SDS011;42848;42.524;12.052;2023-07-13T07:35:15;10.90;;;3.88;;
56943;SDS011;42848;42.524;12.052;2023-07-13T07:37:41;10.70;;;4.03;;
56943;SDS011;42848;42.524;12.052;2023-07-13T07:40:07;7.60;;;3.92;;
56943;SDS011;42848;42.524;12.052;2023-07-13T07:42:33;8.77;;;3.53;;
56943;SDS011;42848;42.524;12.052;2023-07-13T07:44:59;8.70;;;3.58;;
56943;SDS011;42848;42.524;12.052;2023-07-13T07:47:26;7.65;;;3.63;;
56943;SDS011;42848;42.524;12.052;2023-07-13T07:49:51;9.05;;;4.38;;
56943;SDS011;42848;42.524;12.052;2023-07-13T07:52:17;8.50;;;4.95;;
56943;SDS011;42848;42.524;12.052;2023-07-13T07:54:44;9.77;;;4.10;;
56943;SDS011;42848;42.524;12.052;2023-07-13T07:57:09;8.38;;;4.40;;
56943;SDS011;42848;42.524;12.052;2023-07-13T07:59:36;6.45;;;3.72;;
56943;SDS011;42848;42.524;12.052;2023-07-13T08:02:03;6.55;;;4.10;;
56943;SDS011;42848;42.524;12.052;2023-07-13T08:04:29;11.88;;;4.68;;
56943;SDS011;42848;42.524;12.052;2023-07-13T08:06:55;6.13;;;4.50;;
56943;SDS011;42848;42.524;12.052;2023-07-13T08:09:23;7.80;;;4.70;;
56943;SDS011;42848;42.524;12.052;2023-07-13T08:11:49;6.82;;;4.07;;
56943;SDS011;42848;42.524;12.052;2023-07-13T08:14:16;6.47;;;4.05;;
56943;SDS011;42848;42.524;12.052;2023-07-13T08:16:41;8.18;;;4.97;;
56943;SDS011;42848;42.524;12.052;2023-07-13T08:19:07;10.70;;;4.75;;
56943;SDS011;42848;42.524;12.052;2023-07-13T08:21:33;8.70;;;4.63;;
56943;SDS011;42848;42.524;12.052;2023-07-13T08:23:58;8.88;;;4.85;;
56943;SDS011;42848;42.524;12.052;2023-07-13T08:26:24;7.47;;;4.20;;
56943;SDS011;42848;42.524;12.052;2023-07-13T08:28:49;9.82;;;4.35;;
56943;SDS011;42848;42.524;12.052;2023-07-13T08:31:15;10.13;;;4.60;;
56943;SDS011;42848;42.524;12.052;2023-07-13T08:33:40;9.23;;;4.32;;
56943;SDS011;42848;42.524;12.052;2023-07-13T08:36:06;7.80;;;4.20;;
56943;SDS011;42848;42.524;12.052;2023-07-13T08:38:32;7.35;;;4.07;;
56943;SDS011;42848;42.524;12.052;2023-07-13T08:40:58;8.25;;;4.57;;
56943;SDS011;42848;42.524;12.052;2023-07-13T08:43:32;8.60;;;4.60;;
56943;SDS011;42848;42.524;12.052;2023-07-13T08:48:36;7.32;;;4.50;;
56943;SDS011;42848;42.524;12.052;2023-07-13T08:54:20;13.13;;;4.78;;
56943;SDS011;42848;42.524;12.052;2023-07-13T08:56:52;8.95;;;4.60;;
56943;SDS011;42848;42.524;12.052;2023-07-13T08:59:24;10.38;;;4.78;;
56943;SDS011;42848;42.524;12.052;2023-07-13T09:04:42;9.43;;;4.80;;
56943;SDS011;42848;42.524;12.052;2023-07-13T09:10:17;7.43;;;4.70;;
56943;SDS011;42848;42.524;12.052;2023-07-13T09:13:07;9.18;;;4.50;;
56943;SDS011;42848;42.524;12.052;2023-07-13T09:15:49;8.70;;;4.68;;
56943;SDS011;42848;42.524;12.052;2023-07-13T09:18:19;8.80;;;4.70;;
56943;SDS011;42848;42.524;12.052;2023-07-13T09:23:53;8.35;;;4.38;;
56943;SDS011;42848;42.524;12.052;2023-07-13T09:26:22;9.90;;;4.55;;
56943;SDS011;42848;42.524;12.052;2023-07-13T09:28:51;9.63;;;4.50;;
56943;SDS011;42848;42.524;12.052;2023-07-13T09:31:37;8.02;;;4.80;;
56943;SDS011;42848;42.524;12.052;2023-07-13T09:34:10;9.40;;;4.82;;
56943;SDS011;42848;42.524;12.052;2023-07-13T09:36:37;10.55;;;4.70;;
56943;SDS011;42848;42.524;12.052;2023-07-13T09:44:28;9.60;;;4.72;;
56943;SDS011;42848;42.524;12.052;2023-07-13T09:46:56;7.68;;;4.63;;
56943;SDS011;42848;42.524;12.052;2023-07-13T09:49:26;10.63;;;4.88;;
56943;SDS011;42848;42.524;12.052;2023-07-13T09:51:59;10.77;;;4.93;;
56943;SDS011;42848;42.524;12.052;2023-07-13T09:54:27;7.80;;;4.80;;
56943;SDS011;42848;42.524;12.052;2023-07-13T09:56:56;8.98;;;5.15;;
56943;SDS011;42848;42.524;12.052;2023-07-13T09:59:26;8.50;;;4.40;;
56943;SDS011;42848;42.524;12.052;2023-07-13T10:01:57;8.52;;;4.63;;
56943;SDS011;42848;42.524;12.052;2023-07-13T10:04:42;16.95;;;5.13;;
56943;SDS011;42848;42.524;12.052;2023-07-13T10:07:11;8.73;;;4.90;;
56943;SDS011;42848;42.524;12.052;2023-07-13T10:09:41;11.80;;;5.00;;
56943;SDS011;42848;42.524;12.052;2023-07-13T10:12:15;9.68;;;4.65;;
56943;SDS011;42848;42.524;12.052;2023-07-13T10:14:42;8.32;;;4.90;;
56943;SDS011;42848;42.524;12.052;2023-07-13T10:17:10;9.82;;;5.00;;
56943;SDS011;42848;42.524;12.052;2023-07-13T10:19:39;18.80;;;5.45;;
56943;SDS011;42848;42.524;12.052;2023-07-13T10:22:22;9.65;;;4.57;;
56943;SDS011;42848;42.524;12.052;2023-07-13T10:24:55;10.45;;;4.70;;
56943;SDS011;42848;42.524;12.052;2023-07-13T10:27:39;10.05;;;4.88;;
56943;SDS011;42848;42.524;12.052;2023-07-13T10:32:40;9.75;;;4.70;;
56943;SDS011;42848;42.524;12.052;2023-07-13T10:35:08;11.27;;;4.63;;
56943;SDS011;42848;42.524;12.052;2023-07-13T10:37:45;17.42;;;4.90;;
56943;SDS011;42848;42.524;12.052;2023-07-13T10:40:17;10.93;;;4.88;;
56943;SDS011;42848;42.524;12.052;2023-07-13T10:42:55;9.25;;;4.78;;
56943;SDS011;42848;42.524;12.052;2023-07-13T10:45:24;9.88;;;5.18;;
56943;SDS011;42848;42.524;12.052;2023-07-13T10:47:53;11.02;;;4.65;;
56943;SDS011;42848;42.524;12.052;2023-07-13T10:50:23;11.48;;;4.90;;
56943;SDS011;42848;42.524;12.052;2023-07-13T10:52:52;7.60;;;4.85;;
56943;SDS011;42848;42.524;12.052;2023-07-13T10:55:33;12.35;;;4.93;;
56943;SDS011;42848;42.524;12.052;2023-07-13T10:58:02;9.27;;;5.28;;
56943;SDS011;42848;42.524;12.052;2023-07-13T11:00:43;11.38;;;5.20;;
56943;SDS011;42848;42.524;12.052;2023-07-13T11:03:13;10.02;;;5.07;;
56943;SDS011;42848;42.524;12.052;2023-07-13T11:05:42;9.88;;;4.68;;
56943;SDS011;42848;42.524;12.052;2023-07-13T11:11:02;15.45;;;5.35;;
56943;SDS011;42848;42.524;12.052;2023-07-13T11:18:54;10.15;;;4.72;;
56943;SDS011;42848;42.524;12.052;2023-07-13T11:35:38;13.25;;;5.30;;
56943;SDS011;42848;42.524;12.052;2023-07-13T11:38:15;9.82;;;5.07;;
56943;SDS011;42848;42.524;12.052;2023-07-13T11:40:46;9.60;;;5.80;;
56943;SDS011;42848;42.524;12.052;2023-07-13T11:43:14;9.77;;;5.38;;
56943;SDS011;42848;42.524;12.052;2023-07-13T11:48:39;13.70;;;5.15;;
56943;SDS011;42848;42.524;12.052;2023-07-13T11:51:05;7.90;;;5.07;;
56943;SDS011;42848;42.524;12.052;2023-07-13T11:53:44;10.38;;;5.30;;
56943;SDS011;42848;42.524;12.052;2023-07-13T11:56:11;9.95;;;5.35;;
56943;SDS011;42848;42.524;12.052;2023-07-13T11:58:38;8.48;;;4.93;;
56943;SDS011;42848;42.524;12.052;2023-07-13T12:01:04;9.77;;;5.13;;
56943;SDS011;42848;42.524;12.052;2023-07-13T12:03:30;9.95;;;5.30;;
56943;SDS011;42848;42.524;12.052;2023-07-13T12:06:03;8.15;;;4.70;;
56943;SDS011;42848;42.524;12.052;2023-07-13T12:08:44;11.05;;;4.82;;
56943;SDS011;42848;42.524;12.052;2023-07-13T12:11:17;10.85;;;4.68;;
56943;SDS011;42848;42.524;12.052;2023-07-13T12:16:29;10.60;;;4.93;;
56943;SDS011;42848;42.524;12.052;2023-07-13T12:18:58;14.45;;;5.80;;
56943;SDS011;42848;42.524;12.052;2023-07-13T12:21:32;18.83;;;5.70;;
56943;SDS011;42848;42.524;12.052;2023-07-13T12:24:04;9.68;;;5.30;;
56943;SDS011;42848;42.524;12.052;2023-07-13T12:26:39;8.25;;;5.03;;
56943;SDS011;42848;42.524;12.052;2023-07-13T12:29:05;9.68;;;4.90;;
56943;SDS011;42848;42.524;12.052;2023-07-13T12:31:34;9.25;;;5.05;;
56943;SDS011;42848;42.524;12.052;2023-07-13T12:34:09;11.20;;;4.95;;
56943;SDS011;42848;42.524;12.052;2023-07-13T12:37:01;9.95;;;4.93;;
56943;SDS011;42848;42.524;12.052;2023-07-13T12:39:37;8.02;;;4.38;;
56943;SDS011;42848;42.524;12.052;2023-07-13T12:42:31;12.60;;;5.00;;
56943;SDS011;42848;42.524;12.052;2023-07-13T12:45:05;9.00;;;4.72;;
56943;SDS011;42848;42.524;12.052;2023-07-13T12:47:52;8.85;;;5.10;;
56943;SDS011;42848;42.524;12.052;2023-07-13T12:50:30;10.18;;;5.25;;
56943;SDS011;42848;42.524;12.052;2023-07-13T12:53:02;9.80;;;4.72;;
56943;SDS011;42848;42.524;12.052;2023-07-13T12:55:51;11.30;;;4.90;;
56943;SDS011;42848;42.524;12.052;2023-07-13T12:58:27;10.60;;;5.60;;
56943;SDS011;42848;42.524;12.052;2023-07-13T13:00:56;8.48;;;4.93;;
56943;SDS011;42848;42.524;12.052;2023-07-13T13:03:26;11.48;;;5.40;;
56943;SDS011;42848;42.524;12.052;2023-07-13T13:06:05;11.38;;;5.10;;
56943;SDS011;42848;42.524;12.052;2023-07-13T13:08:40;8.10;;;5.27;;
56943;SDS011;42848;42.524;12.052;2023-07-13T13:11:08;9.02;;;5.03;;
56943;SDS011;42848;42.524;12.052;2023-07-13T13:13:34;10.02;;;5.25;;
56943;SDS011;42848;42.524;12.052;2023-07-13T13:18:50;11.18;;;4.88;;
56943;SDS011;42848;42.524;12.052;2023-07-13T13:21:17;10.02;;;5.35;;
56943;SDS011;42848;42.524;12.052;2023-07-13T13:23:44;10.50;;;5.13;;
56943;SDS011;42848;42.524;12.052;2023-07-13T13:26:11;9.30;;;5.55;;
56943;SDS011;42848;42.524;12.052;2023-07-13T13:28:41;9.77;;;5.25;;
56943;SDS011;42848;42.524;12.052;2023-07-13T13:31:09;8.30;;;5.07;;
56943;SDS011;42848;42.524;12.052;2023-07-13T13:33:41;8.70;;;5.20;;
56943;SDS011;42848;42.524;12.052;2023-07-13T13:36:18;10.15;;;5.20;;
56943;SDS011;42848;42.524;12.052;2023-07-13T13:38:47;10.50;;;5.28;;
56943;SDS011;42848;42.524;12.052;2023-07-13T13:41:15;11.07;;;5.30;;
56943;SDS011;42848;42.524;12.052;2023-07-13T13:43:41;12.32;;;5.00;;
56943;SDS011;42848;42.524;12.052;2023-07-13T13:46:17;10.52;;;5.22;;
56943;SDS011;42848;42.524;12.052;2023-07-13T13:48:46;9.88;;;5.95;;
56943;SDS011;42848;42.524;12.052;2023-07-13T13:51:18;17.92;;;5.82;;
56943;SDS011;42848;42.524;12.052;2023-07-13T13:53:47;9.40;;;4.95;;
56943;SDS011;42848;42.524;12.052;2023-07-13T13:56:13;8.88;;;4.90;;
56943;SDS011;42848;42.524;12.052;2023-07-13T13:58:40;11.93;;;5.30;;
56943;SDS011;42848;42.524;12.052;2023-07-13T14:01:22;11.45;;;5.40;;
56943;SDS011;42848;42.524;12.052;2023-07-13T14:03:49;12.40;;;6.05;;
56943;SDS011;42848;42.524;12.052;2023-07-13T14:06:18;9.95;;;5.50;;
56943;SDS011;42848;42.524;12.052;2023-07-13T14:08:44;8.98;;;5.55;;
56943;SDS011;42848;42.524;12.052;2023-07-13T14:11:15;12.55;;;5.32;;
56943;SDS011;42848;42.524;12.052;2023-07-13T14:14:01;9.48;;;5.07;;
56943;SDS011;42848;42.524;12.052;2023-07-13T14:16:29;9.48;;;4.93;;
56943;SDS011;42848;42.524;12.052;2023-07-13T14:18:57;10.32;;;5.30;;
56943;SDS011;42848;42.524;12.052;2023-07-13T14:21:25;8.88;;;5.30;;
56943;SDS011;42848;42.524;12.052;2023-07-13T14:23:53;11.55;;;5.20;;
56943;SDS011;42848;42.524;12.052;2023-07-13T14:28:50;9.65;;;5.45;;
56943;SDS011;42848;42.524;12.052;2023-07-13T14:31:20;12.50;;;5.82;;
56943;SDS011;42848;42.524;12.052;2023-07-13T14:33:46;11.35;;;5.47;;
56943;SDS011;42848;42.524;12.052;2023-07-13T14:39:14;11.23;;;5.50;;
56943;SDS011;42848;42.524;12.052;2023-07-13T14:41:42;14.40;;;5.75;;
56943;SDS011;42848;42.524;12.052;2023-07-13T14:44:12;11.32;;;5.63;;
56943;SDS011;42848;42.524;12.052;2023-07-13T14:46:41;10.52;;;5.10;;
56943;SDS011;42848;42.524;12.052;2023-07-13T14:51:49;10.93;;;5.40;;
56943;SDS011;42848;42.524;12.052;2023-07-13T14:54:16;11.63;;;5.43;;
56943;SDS011;42848;42.524;12.052;2023-07-13T14:56:41;11.32;;;5.72;;
56943;SDS011;42848;42.524;12.052;2023-07-13T14:59:07;9.60;;;5.60;;
56943;SDS011;42848;42.524;12.052;2023-07-13T15:01:36;11.02;;;5.78;;
56943;SDS011;42848;42.524;12.052;2023-07-13T15:04:03;10.43;;;5.28;;
56943;SDS011;42848;42.524;12.052;2023-07-13T15:06:29;12.77;;;5.22;;
56943;SDS011;42848;42.524;12.052;2023-07-13T15:08:56;11.43;;;5.90;;
56943;SDS011;42848;42.524;12.052;2023-07-13T15:11:22;10.40;;;5.47;;
56943;SDS011;42848;42.524;12.052;2023-07-13T15:13:52;12.98;;;5.53;;
56943;SDS011;42848;42.524;12.052;2023-07-13T15:16:22;14.18;;;5.22;;
56943;SDS011;42848;42.524;12.052;2023-07-13T15:18:51;12.90;;;5.20;;
56943;SDS011;42848;42.524;12.052;2023-07-13T15:21:25;12.02;;;5.60;;
56943;SDS011;42848;42.524;12.052;2023-07-13T15:23:56;11.60;;;5.57;;
56943;SDS011;42848;42.524;12.052;2023-07-13T15:26:22;12.85;;;5.90;;
56943;SDS011;42848;42.524;12.052;2023-07-13T15:28:50;9.43;;;5.65;;
56943;SDS011;42848;42.524;12.052;2023-07-13T15:31:21;11.27;;;5.20;;
56943;SDS011;42848;42.524;12.052;2023-07-13T15:33:56;11.45;;;5.22;;
56943;SDS011;42848;42.524;12.052;2023-07-13T15:36:30;11.60;;;5.20;;
56943;SDS011;42848;42.524;12.052;2023-07-13T15:38:59;10.30;;;5.15;;
56943;SDS011;42848;42.524;12.052;2023-07-13T15:41:28;12.30;;;5.45;;